Time;durP1;ratioP1;P1;durP2;ratioP2;P2;SDS_P1;SDS_P2;PMS_P1;PMS_P2;Temp;Humidity;BMP_temperature;BMP_pressure;BME280_temperature;BME280_humidity;BME280_pressure;Samples;Min_cycle;Max_cycle;Signal;HPM_P1;HPM_P2
2023/09/13 00:04:09;;;;;;;10.88;9.82;;;;;;;;;;10114206;28;20037;-96
2023/09/13 00:09:06;;;;;;;11.63;8.90;;;;;;;;;;10100717;28;20052;-95
2023/09/13 00:13:59;;;;;;;10.73;9.82;;;;;;;;;;10100405;28;20049;-95
2023/09/13 00:18:53;;;;;;;10.80;9.27;;;;;;;;;;10112462;28;20675;-96
2023/09/13 00:23:47;;;;;;;10.65;9.35;;;;;;;;;;10115940;28;20052;-95
2023/09/13 00:28:42;;;;;;;9.57;8.65;;;;;;;;;;10101837;28;20412;-96
2023/09/13 00:33:39;;;;;;;8.32;7.55;;;;;;;;;;10087755;28;20053;-96
2023/09/13 00:38:32;;;;;;;8.25;7.32;;;;;;;;;;10099404;28;20041;-96
2023/09/13 00:43:26;;;;;;;8.45;6.78;;;;;;;;;;10076713;28;20053;-96
2023/09/13 00:48:23;;;;;;;9.30;7.45;;;;;;;;;;10092871;28;20045;-96
2023/09/13 00:53:18;;;;;;;8.45;7.65;;;;;;;;;;10085537;28;20056;-95
2023/09/13 00:58:13;;;;;;;7.78;6.93;;;;;;;;;;10083251;28;20139;-96
2023/09/13 01:03:10;;;;;;;8.50;7.70;;;;;;;;;;10111530;28;20067;-96
2023/09/13 01:08:05;;;;;;;11.07;6.70;;;;;;;;;;10100746;28;20061;-94
2023/09/13 01:12:59;;;;;;;9.30;7.60;;;;;;;;;;10122067;28;20045;-96
2023/09/13 01:18:02;;;;;;;10.23;7.95;;;;;;;;;;10104713;28;20065;-95
2023/09/13 01:23:16;;;;;;;8.15;7.35;;;;;;;;;;10076563;28;20055;-96
2023/09/13 01:28:22;;;;;;;8.25;7.55;;;;;;;;;;10111976;28;20041;-96
2023/09/13 01:33:16;;;;;;;8.93;8.13;;;;;;;;;;10109928;28;20448;-96
2023/09/13 01:38:10;;;;;;;10.55;8.82;;;;;;;;;;10113935;28;20040;-95
2023/09/13 01:43:04;;;;;;;8.18;7.35;;;;;;;;;;10114555;28;20045;-96
2023/09/13 01:47:59;;;;;;;8.57;7.25;;;;;;;;;;10093730;28;20065;-96
2023/09/13 01:52:53;;;;;;;8.27;6.72;;;;;;;;;;10080090;28;20053;-96
2023/09/13 01:57:46;;;;;;;13.55;8.27;;;;;;;;;;10103056;28;20049;-95
2023/09/13 02:02:39;;;;;;;7.93;7.20;;;;;;;;;;10102280;28;20119;-95
2023/09/13 02:07:33;;;;;;;7.65;6.95;;;;;;;;;;10102402;28;20048;-96
2023/09/13 02:12:27;;;;;;;9.75;7.47;;;;;;;;;;10093872;28;20071;-96
2023/09/13 02:17:20;;;;;;;7.05;6.45;;;;;;;;;;10100025;28;20164;-96
2023/09/13 02:22:14;;;;;;;8.57;6.88;;;;;;;;;;10101720;28;20120;-96
2023/09/13 02:27:11;;;;;;;8.00;7.25;;;;;;;;;;10112007;28;20043;-95
2023/09/13 02:32:04;;;;;;;7.05;6.45;;;;;;;;;;10124797;28;20045;-96
2023/09/13 02:36:58;;;;;;;8.65;7.22;;;;;;;;;;10099692;28;20148;-96
2023/09/13 02:41:51;;;;;;;8.60;6.72;;;;;;;;;;10116839;28;20514;-96
2023/09/13 02:46:45;;;;;;;8.27;6.80;;;;;;;;;;10117983;28;20076;-96
2023/09/13 02:51:39;;;;;;;7.05;6.45;;;;;;;;;;10097997;28;20381;-96
2023/09/13 02:56:36;;;;;;;8.45;6.60;;;;;;;;;;10107071;28;20033;-96
2023/09/13 03:01:29;;;;;;;7.50;6.82;;;;;;;;;;10102367;28;20053;-96
2023/09/13 03:06:22;;;;;;;6.82;6.25;;;;;;;;;;10094967;28;20053;-96
2023/09/13 03:11:18;;;;;;;10.05;7.85;;;;;;;;;;10096295;28;20064;-94
2023/09/13 03:16:13;;;;;;;8.13;7.28;;;;;;;;;;10080545;28;20079;-96
2023/09/13 03:21:08;;;;;;;8.05;7.10;;;;;;;;;;10105948;28;20044;-96
2023/09/13 03:26:12;;;;;;;8.15;7.45;;;;;;;;;;10102214;28;20131;-96
2023/09/13 03:31:36;;;;;;;9.02;7.85;;;;;;;;;;10096363;28;20041;-96
2023/09/13 03:36:37;;;;;;;7.72;6.97;;;;;;;;;;10095915;28;20492;-96
2023/09/13 03:41:32;;;;;;;9.45;7.20;;;;;;;;;;10097187;28;20072;-96
2023/09/13 03:46:27;;;;;;;6.43;5.85;;;;;;;;;;10096587;28;20045;-96
2023/09/13 03:51:23;;;;;;;8.82;7.57;;;;;;;;;;10097837;28;20104;-95
2023/09/13 03:56:16;;;;;;;9.68;8.10;;;;;;;;;;10115858;28;20041;-96
2023/09/13 04:01:11;;;;;;;7.68;6.55;;;;;;;;;;10114630;28;20052;-96
2023/09/13 04:06:05;;;;;;;7.80;7.05;;;;;;;;;;10096247;28;20049;-96
2023/09/13 04:10:59;;;;;;;6.70;6.05;;;;;;;;;;10124221;28;20049;-96
2023/09/13 04:15:53;;;;;;;8.23;7.20;;;;;;;;;;10106600;28;20049;-96
2023/09/13 04:20:47;;;;;;;8.98;6.22;;;;;;;;;;10101996;28;20064;-96
2023/09/13 04:25:41;;;;;;;7.18;6.50;;;;;;;;;;10115440;28;20043;-96
2023/09/13 04:30:37;;;;;;;7.93;7.13;;;;;;;;;;10101239;28;20071;-96
2023/09/13 04:35:38;;;;;;;7.72;7.03;;;;;;;;;;10121804;28;20116;-95
2023/09/13 04:40:31;;;;;;;7.32;6.25;;;;;;;;;;10098039;28;20056;-96
2023/09/13 04:45:26;;;;;;;6.72;6.03;;;;;;;;;;10115053;28;20384;-95
2023/09/13 04:50:20;;;;;;;7.45;6.60;;;;;;;;;;10068908;28;20176;-96
2023/09/13 04:55:18;;;;;;;10.18;7.45;;;;;;;;;;10096193;28;20084;-96
2023/09/13 05:00:14;;;;;;;7.78;6.97;;;;;;;;;;10115594;28;20049;-96
2023/09/13 05:05:09;;;;;;;9.10;6.55;;;;;;;;;;10116117;28;20069;-96
2023/09/13 05:10:04;;;;;;;8.60;6.35;;;;;;;;;;10117242;28;20132;-96
2023/09/13 05:14:58;;;;;;;9.93;6.00;;;;;;;;;;10086900;28;20493;-95
2023/09/13 05:20:00;;;;;;;7.82;6.35;;;;;;;;;;10136274;23;20078;-77
2023/09/13 05:24:52;;;;;;;7.80;6.28;;;;;;;;;;10131726;28;20075;-79
2023/09/13 05:29:44;;;;;;;8.32;5.72;;;;;;;;;;10139969;28;20379;-81
2023/09/13 05:34:36;;;;;;;10.30;7.20;;;;;;;;;;10143955;28;20045;-80
2023/09/13 05:39:28;;;;;;;15.63;8.27;;;;;;;;;;10144501;28;20132;-81
2023/09/13 05:44:24;;;;;;;8.57;7.18;;;;;;;;;;10141616;28;20558;-81
2023/09/13 05:49:17;;;;;;;11.57;7.22;;;;;;;;;;10141676;28;20045;-76
2023/09/13 05:54:09;;;;;;;10.90;6.68;;;;;;;;;;10143289;28;20063;-76
2023/09/13 05:59:01;;;;;;;6.78;6.07;;;;;;;;;;10143159;28;20098;-76
2023/09/13 06:03:53;;;;;;;8.00;5.53;;;;;;;;;;10143317;28;20124;-76
2023/09/13 06:08:45;;;;;;;7.57;6.22;;;;;;;;;;10143521;28;20040;-74
2023/09/13 06:13:37;;;;;;;11.77;6.53;;;;;;;;;;10142789;28;20044;-77
2023/09/13 06:18:29;;;;;;;6.18;5.68;;;;;;;;;;10142565;28;20045;-77
2023/09/13 06:23:41;;;;;;;10.38;6.25;;;;;;;;;;10141753;28;20048;-76
2023/09/13 06:28:34;;;;;;;10.98;6.82;;;;;;;;;;10125929;28;20147;-76
2023/09/13 06:33:26;;;;;;;7.70;6.40;;;;;;;;;;10141667;28;20106;-75
2023/09/13 06:38:32;;;;;;;9.95;6.30;;;;;;;;;;10142484;28;20040;-76
2023/09/13 06:43:25;;;;;;;9.73;6.78;;;;;;;;;;10131283;28;20044;-76
2023/09/13 06:48:19;;;;;;;7.80;7.00;;;;;;;;;;10148595;28;20043;-76
2023/09/13 06:53:12;;;;;;;10.18;7.07;;;;;;;;;;10148615;28;20048;-73
2023/09/13 06:58:08;;;;;;;11.60;7.25;;;;;;;;;;10148569;28;20497;-76
2023/09/13 07:03:04;;;;;;;8.43;6.00;;;;;;;;;;10148814;28;20094;-76
2023/09/13 07:08:03;;;;;;;7.23;5.53;;;;;;;;;;10148396;28;20082;-76
2023/09/13 07:12:55;;;;;;;8.05;4.97;;;;;;;;;;10148458;28;20053;-75
2023/09/13 07:17:47;;;;;;;6.63;5.57;;;;;;;;;;10148038;28;20147;-76
2023/09/13 07:22:39;;;;;;;7.32;5.80;;;;;;;;;;10148243;28;20068;-76
2023/09/13 07:27:31;;;;;;;8.68;5.00;;;;;;;;;;10147183;28;20478;-75
2023/09/13 07:32:23;;;;;;;5.50;4.93;;;;;;;;;;10146393;28;20382;-75
2023/09/13 07:37:16;;;;;;;5.97;5.38;;;;;;;;;;10146722;28;20051;-75
2023/09/13 07:42:09;;;;;;;5.85;5.10;;;;;;;;;;10147112;28;20383;-75
2023/09/13 07:47:01;;;;;;;8.18;5.15;;;;;;;;;;10145846;28;20044;-76
2023/09/13 07:51:53;;;;;;;4.20;3.85;;;;;;;;;;10146350;28;20055;-76
2023/09/13 07:56:45;;;;;;;5.97;5.38;;;;;;;;;;10148135;28;20057;-76
2023/09/13 08:01:37;;;;;;;4.47;4.07;;;;;;;;;;10146469;28;20044;-75
2023/09/13 08:06:29;;;;;;;8.25;6.22;;;;;;;;;;10145944;28;20116;-76
2023/09/13 08:11:20;;;;;;;9.00;7.50;;;;;;;;;;10145857;28;20445;-75
2023/09/13 08:16:12;;;;;;;7.72;6.85;;;;;;;;;;10144379;28;20053;-76
2023/09/13 08:21:04;;;;;;;8.70;6.35;;;;;;;;;;10145090;28;20288;-75
2023/09/13 08:25:56;;;;;;;8.48;7.68;;;;;;;;;;10144790;28;20352;-75
2023/09/13 08:31:07;;;;;;;7.53;6.32;;;;;;;;;;10145361;28;20374;-76
2023/09/13 08:36:01;;;;;;;10.07;6.25;;;;;;;;;;10144428;28;20098;-75
2023/09/13 08:40:54;;;;;;;5.75;5.20;;;;;;;;;;10144837;28;20374;-76
2023/09/13 08:45:48;;;;;;;8.43;5.40;;;;;;;;;;10143918;28;20052;-76
2023/09/13 08:50:40;;;;;;;8.40;6.05;;;;;;;;;;10127074;28;20478;-76
2023/09/13 08:55:32;;;;;;;9.55;8.20;;;;;;;;;;10126186;28;20450;-75
2023/09/13 09:00:27;;;;;;;8.05;6.18;;;;;;;;;;10125770;28;20150;-75
2023/09/13 09:05:19;;;;;;;7.95;5.40;;;;;;;;;;10125711;28;20474;-75
2023/09/13 09:10:12;;;;;;;6.28;4.57;;;;;;;;;;10143006;28;20045;-75
2023/09/13 09:15:05;;;;;;;9.20;5.07;;;;;;;;;;10143188;28;20048;-75
2023/09/13 09:19:59;;;;;;;10.68;6.90;;;;;;;;;;10125049;28;20374;-76
2023/09/13 09:24:51;;;;;;;7.25;5.45;;;;;;;;;;10125443;28;20051;-76
2023/09/13 09:29:44;;;;;;;4.88;4.40;;;;;;;;;;10142993;28;20111;-75
2023/09/13 09:34:41;;;;;;;6.63;4.63;;;;;;;;;;10143035;28;20109;-76
2023/09/13 09:39:37;;;;;;;6.78;5.13;;;;;;;;;;10142670;28;20045;-76
2023/09/13 09:44:29;;;;;;;5.85;4.82;;;;;;;;;;10142915;28;20131;-75
2023/09/13 09:49:22;;;;;;;6.80;4.75;;;;;;;;;;10142859;28;20051;-76
2023/09/13 09:54:14;;;;;;;5.25;4.75;;;;;;;;;;10124826;28;20052;-76
2023/09/13 09:59:06;;;;;;;4.93;4.47;;;;;;;;;;10142488;28;20367;-76
2023/09/13 10:04:11;;;;;;;5.70;4.35;;;;;;;;;;10142300;28;20048;-74
2023/09/13 10:09:04;;;;;;;5.63;4.55;;;;;;;;;;10143153;28;20056;-76
2023/09/13 10:13:56;;;;;;;7.57;6.15;;;;;;;;;;10144133;28;20044;-76
2023/09/13 10:18:52;;;;;;;7.80;6.00;;;;;;;;;;10149109;28;20119;-76
2023/09/13 10:23:52;;;;;;;12.13;6.38;;;;;;;;;;10150240;28;20110;-76
2023/09/13 10:28:45;;;;;;;7.60;6.47;;;;;;;;;;10149558;28;20040;-76
2023/09/13 10:33:39;;;;;;;6.28;5.32;;;;;;;;;;10149679;28;20351;-77
2023/09/13 10:38:49;;;;;;;9.60;6.43;;;;;;;;;;10131511;28;20048;-76
2023/09/13 10:43:41;;;;;;;11.40;7.85;;;;;;;;;;10149200;28;20045;-77
2023/09/13 10:48:34;;;;;;;5.75;5.18;;;;;;;;;;10148619;28;20094;-77
2023/09/13 10:53:26;;;;;;;11.52;7.78;;;;;;;;;;10148842;28;20049;-76
2023/09/13 10:58:20;;;;;;;11.50;8.10;;;;;;;;;;10130389;28;20369;-76
2023/09/13 11:03:12;;;;;;;10.18;7.60;;;;;;;;;;10130843;28;20052;-76
2023/09/13 11:08:07;;;;;;;10.98;6.07;;;;;;;;;;10130460;28;20266;-76
2023/09/13 11:13:12;;;;;;;8.68;6.35;;;;;;;;;;10147889;28;20051;-76
2023/09/13 11:18:14;;;;;;;8.75;6.72;;;;;;;;;;10147128;28;20179;-76
2023/09/13 11:23:14;;;;;;;9.77;6.47;;;;;;;;;;10147204;28;20058;-76
2023/09/13 11:28:36;;;;;;;8.13;6.97;;;;;;;;;;10145910;28;20049;-76
2023/09/13 11:33:30;;;;;;;7.70;6.30;;;;;;;;;;10147108;28;20099;-77
2023/09/13 11:38:23;;;;;;;8.18;6.00;;;;;;;;;;10102184;28;20091;-76
2023/09/13 11:43:22;;;;;;;6.95;6.30;;;;;;;;;;10106672;28;20045;-76
2023/09/13 11:48:39;;;;;;;8.77;6.32;;;;;;;;;;10090028;28;20045;-76
2023/09/13 11:53:34;;;;;;;8.38;7.60;;;;;;;;;;10104894;28;20056;-78
2023/09/13 11:58:37;;;;;;;11.20;6.68;;;;;;;;;;10098676;28;20227;-77
2023/09/13 12:03:45;;;;;;;7.93;6.32;;;;;;;;;;10107567;28;20131;-78
2023/09/13 12:08:41;;;;;;;6.40;5.25;;;;;;;;;;10107862;28;20037;-78
2023/09/13 12:13:47;;;;;;;9.18;5.38;;;;;;;;;;10090148;28;20495;-78
2023/09/13 12:18:59;;;;;;;6.68;5.40;;;;;;;;;;10108485;28;20049;-79
2023/09/13 12:23:51;;;;;;;12.68;6.85;;;;;;;;;;10109370;28;20073;-78
2023/09/13 12:28:45;;;;;;;14.85;6.22;;;;;;;;;;10105508;28;20103;-76
2023/09/13 12:33:40;;;;;;;5.90;5.32;;;;;;;;;;10105669;28;20052;-76
2023/09/13 12:38:43;;;;;;;7.07;5.30;;;;;;;;;;10103696;28;20045;-80
2023/09/13 12:43:36;;;;;;;5.93;5.35;;;;;;;;;;10103553;28;20371;-79
2023/09/13 12:48:27;;;;;;;7.85;5.63;;;;;;;;;;10103805;28;20041;-80
2023/09/13 12:53:21;;;;;;;8.68;5.18;;;;;;;;;;10089254;28;20041;-80
2023/09/13 12:58:13;;;;;;;4.90;4.43;;;;;;;;;;10100613;28;20082;-81
2023/09/13 13:03:05;;;;;;;8.15;5.47;;;;;;;;;;10107443;28;20159;-80
2023/09/13 13:08:03;;;;;;;7.00;4.72;;;;;;;;;;10110602;28;20056;-80
2023/09/13 13:12:54;;;;;;;8.57;5.70;;;;;;;;;;10105863;28;20463;-79
2023/09/13 13:17:47;;;;;;;6.18;4.88;;;;;;;;;;10106636;28;20049;-80
2023/09/13 13:22:39;;;;;;;10.93;4.90;;;;;;;;;;10106615;28;20087;-81
2023/09/13 13:27:31;;;;;;;9.85;4.95;;;;;;;;;;10089526;28;20463;-78
2023/09/13 13:32:23;;;;;;;7.22;4.43;;;;;;;;;;10105408;28;20048;-79
2023/09/13 13:37:15;;;;;;;7.30;4.68;;;;;;;;;;10106007;28;20056;-78
2023/09/13 13:42:08;;;;;;;6.63;4.90;;;;;;;;;;10114974;28;20382;-78
2023/09/13 13:47:00;;;;;;;8.35;5.03;;;;;;;;;;10101936;28;20040;-79
2023/09/13 13:51:52;;;;;;;7.78;5.20;;;;;;;;;;10110221;28;20052;-77
2023/09/13 13:56:46;;;;;;;13.73;5.22;;;;;;;;;;10113440;28;20083;-80
2023/09/13 14:01:40;;;;;;;9.98;4.68;;;;;;;;;;10110712;28;20132;-79
2023/09/13 14:06:32;;;;;;;7.35;5.45;;;;;;;;;;10099103;28;20041;-79
2023/09/13 14:11:24;;;;;;;9.82;5.70;;;;;;;;;;10110273;28;20041;-78
2023/09/13 14:16:16;;;;;;;8.50;5.15;;;;;;;;;;10116924;28;20160;-78
2023/09/13 14:21:08;;;;;;;6.53;5.07;;;;;;;;;;10116794;28;20060;-77
2023/09/13 14:25:59;;;;;;;8.57;5.05;;;;;;;;;;10134222;28;20079;-76
2023/09/13 14:30:58;;;;;;;12.32;5.10;;;;;;;;;;10147891;28;20040;-77
2023/09/13 14:35:51;;;;;;;7.00;5.20;;;;;;;;;;10130682;28;20049;-66
2023/09/13 14:40:43;;;;;;;7.15;6.00;;;;;;;;;;10149103;28;20105;-67
2023/09/13 14:45:35;;;;;;;9.13;8.10;;;;;;;;;;10124114;28;20056;-67
2023/09/13 14:50:27;;;;;;;15.98;9.98;;;;;;;;;;10112647;28;20047;-67
2023/09/13 14:55:19;;;;;;;9.27;7.93;;;;;;;;;;10112797;28;20045;-66
2023/09/13 15:00:11;;;;;;;12.32;5.07;;;;;;;;;;10112091;28;20463;-66
2023/09/13 15:05:03;;;;;;;16.17;4.97;;;;;;;;;;10111986;28;20064;-66
2023/09/13 15:09:55;;;;;;;13.45;6.60;;;;;;;;;;10111772;28;20055;-65
2023/09/13 15:14:47;;;;;;;6.07;5.32;;;;;;;;;;10128707;28;20052;-65
2023/09/13 15:19:39;;;;;;;10.85;9.52;;;;;;;;;;10128359;28;20522;-66
2023/09/13 15:24:36;;;;;;;10.00;9.00;;;;;;;;;;10111760;28;20361;-66
2023/09/13 15:29:28;;;;;;;6.82;6.13;;;;;;;;;;10111445;28;20073;-65
2023/09/13 15:34:20;;;;;;;6.60;4.93;;;;;;;;;;10119807;28;20451;-66
2023/09/13 15:39:12;;;;;;;6.85;4.97;;;;;;;;;;10143574;28;20089;-66
2023/09/13 15:44:04;;;;;;;6.95;5.55;;;;;;;;;;10098481;28;20551;-66
2023/09/13 15:48:56;;;;;;;12.00;9.50;;;;;;;;;;10093865;28;20047;-65
2023/09/13 15:53:47;;;;;;;13.90;10.68;;;;;;;;;;10122248;28;20102;-66
2023/09/13 15:58:41;;;;;;;12.27;11.07;;;;;;;;;;10099001;28;20040;-66
2023/09/13 16:03:33;;;;;;;11.30;8.30;;;;;;;;;;10108750;28;20402;-66
2023/09/13 16:08:25;;;;;;;5.53;4.97;;;;;;;;;;10089681;28;20115;-67
2023/09/13 16:13:17;;;;;;;7.55;5.55;;;;;;;;;;10087623;28;20125;-64
2023/09/13 16:18:10;;;;;;;11.32;10.02;;;;;;;;;;10072315;28;20462;-64
2023/09/13 16:23:04;;;;;;;11.30;8.85;;;;;;;;;;10091169;28;20056;-64
2023/09/13 16:27:56;;;;;;;11.05;9.88;;;;;;;;;;10094390;28;20175;-67
2023/09/13 16:32:52;;;;;;;8.43;7.63;;;;;;;;;;10105829;28;20047;-67
2023/09/13 16:37:44;;;;;;;10.52;9.52;;;;;;;;;;10083264;28;20049;-65
2023/09/13 16:42:36;;;;;;;10.07;8.43;;;;;;;;;;10066549;28;20047;-67
2023/09/13 16:47:28;;;;;;;10.30;8.52;;;;;;;;;;10081678;28;20050;-66
2023/09/13 16:52:20;;;;;;;11.50;10.48;;;;;;;;;;10091775;28;20053;-66
2023/09/13 16:57:12;;;;;;;10.32;9.43;;;;;;;;;;10106949;28;20044;-64
2023/09/13 17:02:03;;;;;;;15.32;10.68;;;;;;;;;;10115834;28;20493;-65
2023/09/13 17:06:55;;;;;;;16.02;10.00;;;;;;;;;;10106093;28;20047;-64
2023/09/13 17:11:47;;;;;;;10.02;7.93;;;;;;;;;;10093271;28;20041;-65
2023/09/13 17:16:39;;;;;;;11.40;10.27;;;;;;;;;;10092196;28;20124;-65
2023/09/13 17:21:31;;;;;;;9.23;6.95;;;;;;;;;;10090829;28;20037;-64
2023/09/13 17:26:23;;;;;;;10.85;9.77;;;;;;;;;;10090745;28;20061;-64
2023/09/13 17:31:15;;;;;;;13.77;10.63;;;;;;;;;;10077776;28;20049;-65
2023/09/13 17:36:07;;;;;;;7.75;6.90;;;;;;;;;;10087131;28;20055;-65
2023/09/13 17:40:58;;;;;;;7.70;5.55;;;;;;;;;;10096436;28;20053;-66
2023/09/13 17:45:51;;;;;;;7.18;6.03;;;;;;;;;;10086631;28;20143;-68
2023/09/13 17:50:43;;;;;;;6.28;5.47;;;;;;;;;;10067324;28;20434;-65
2023/09/13 17:55:34;;;;;;;6.05;5.40;;;;;;;;;;10087044;28;20649;-66
2023/09/13 18:00:29;;;;;;;12.30;8.23;;;;;;;;;;10099410;28;20035;-64
2023/09/13 18:05:21;;;;;;;7.25;5.70;;;;;;;;;;10090679;28;20049;-66
2023/09/13 18:10:16;;;;;;;7.55;5.28;;;;;;;;;;10091739;28;20044;-66
2023/09/13 18:15:08;;;;;;;9.50;6.05;;;;;;;;;;10079934;28;20041;-66
2023/09/13 18:20:00;;;;;;;12.18;7.30;;;;;;;;;;10093615;28;20049;-66
2023/09/13 18:24:53;;;;;;;12.65;7.22;;;;;;;;;;10098639;28;20068;-66
2023/09/13 18:29:45;;;;;;;14.02;8.40;;;;;;;;;;10098247;28;20051;-63
2023/09/13 18:34:40;;;;;;;7.03;6.25;;;;;;;;;;10091493;28;20091;-64
2023/09/13 18:39:32;;;;;;;7.55;6.18;;;;;;;;;;10089107;28;20103;-62
2023/09/13 18:44:24;;;;;;;9.80;5.15;;;;;;;;;;10086485;28;20398;-65
2023/09/13 18:49:18;;;;;;;6.80;4.70;;;;;;;;;;10096405;28;20048;-65
2023/09/13 18:54:09;;;;;;;5.85;5.25;;;;;;;;;;10089367;28;20048;-66
2023/09/13 18:59:02;;;;;;;7.63;4.25;;;;;;;;;;10070457;28;20103;-65
2023/09/13 19:03:54;;;;;;;9.63;7.05;;;;;;;;;;10070175;28;20046;-66
2023/09/13 19:08:50;;;;;;;4.38;3.88;;;;;;;;;;10071865;28;20099;-66
2023/09/13 19:13:44;;;;;;;9.95;4.03;;;;;;;;;;10084092;28;20049;-64
2023/09/13 19:18:41;;;;;;;6.82;4.93;;;;;;;;;;10067553;28;20121;-66
2023/09/13 19:23:32;;;;;;;5.38;4.78;;;;;;;;;;10068553;28;20037;-66
2023/09/13 19:28:28;;;;;;;9.50;3.65;;;;;;;;;;10068031;28;20037;-66
2023/09/13 19:33:23;;;;;;;8.65;5.35;;;;;;;;;;10067752;28;20087;-65
2023/09/13 19:38:16;;;;;;;6.20;4.53;;;;;;;;;;10080220;28;20444;-66
2023/09/13 19:43:24;;;;;;;10.43;5.78;;;;;;;;;;10083272;28;20068;-65
2023/09/13 19:48:16;;;;;;;3.30;3.00;;;;;;;;;;10090922;28;20072;-65
2023/09/13 19:53:08;;;;;;;6.55;3.88;;;;;;;;;;10102644;28;20048;-64
2023/09/13 19:58:00;;;;;;;9.20;4.30;;;;;;;;;;10092994;28;20128;-67
2023/09/13 20:02:52;;;;;;;5.15;3.40;;;;;;;;;;10098075;28;20426;-66
2023/09/13 20:07:44;;;;;;;8.55;3.70;;;;;;;;;;10079296;28;20040;-66
2023/09/13 20:12:38;;;;;;;7.03;3.60;;;;;;;;;;10104719;28;20073;-66
2023/09/13 20:17:32;;;;;;;6.18;4.13;;;;;;;;;;10074329;28;20140;-66
2023/09/13 20:22:24;;;;;;;8.98;5.13;;;;;;;;;;10078098;28;20073;-66
2023/09/13 20:27:16;;;;;;;3.38;3.08;;;;;;;;;;10108030;28;20047;-66
2023/09/13 20:32:09;;;;;;;7.88;3.10;;;;;;;;;;10054055;28;20049;-64
2023/09/13 20:37:01;;;;;;;5.82;3.97;;;;;;;;;;10104906;28;20084;-67
2023/09/13 20:41:53;;;;;;;6.72;4.50;;;;;;;;;;10070697;28;20095;-65
2023/09/13 20:46:45;;;;;;;7.30;4.68;;;;;;;;;;10068192;28;20045;-67
2023/09/13 20:51:36;;;;;;;5.15;4.05;;;;;;;;;;10096446;28;20422;-67
2023/09/13 20:56:28;;;;;;;7.55;3.60;;;;;;;;;;10092598;28;20443;-65
2023/09/13 21:01:22;;;;;;;4.45;3.35;;;;;;;;;;10093901;28;20048;-67
2023/09/13 21:06:14;;;;;;;4.80;3.83;;;;;;;;;;10102329;28;20041;-67
2023/09/13 21:11:06;;;;;;;7.22;3.83;;;;;;;;;;10100949;28;20370;-67
2023/09/13 21:16:02;;;;;;;6.85;4.55;;;;;;;;;;10099207;28;20057;-66
2023/09/13 21:20:58;;;;;;;7.03;3.55;;;;;;;;;;10089233;28;20201;-65
2023/09/13 21:25:51;;;;;;;4.90;3.30;;;;;;;;;;10075644;28;20140;-66
2023/09/13 21:30:43;;;;;;;5.90;3.53;;;;;;;;;;10092212;28;20096;-73
2023/09/13 21:35:35;;;;;;;5.53;3.80;;;;;;;;;;10062946;28;20427;-72
2023/09/13 21:40:27;;;;;;;7.32;4.28;;;;;;;;;;10098492;28;20110;-72
2023/09/13 21:45:19;;;;;;;3.88;3.40;;;;;;;;;;10097425;28;20092;-73
2023/09/13 21:50:12;;;;;;;7.68;4.35;;;;;;;;;;10077652;28;20387;-74
2023/09/13 21:55:04;;;;;;;7.28;4.00;;;;;;;;;;10079003;28;20421;-73
2023/09/13 21:59:56;;;;;;;5.28;3.53;;;;;;;;;;10088429;28;20535;-72
2023/09/13 22:04:48;;;;;;;7.10;3.90;;;;;;;;;;10104217;28;20033;-74
2023/09/13 22:09:40;;;;;;;5.07;3.97;;;;;;;;;;10099914;28;20041;-74
2023/09/13 22:14:32;;;;;;;6.85;5.15;;;;;;;;;;10071263;28;20046;-73
2023/09/13 22:19:24;;;;;;;7.40;6.57;;;;;;;;;;10102337;28;20087;-74
2023/09/13 22:24:16;;;;;;;11.52;5.47;;;;;;;;;;10099241;28;20053;-73
2023/09/13 22:29:08;;;;;;;7.05;5.90;;;;;;;;;;10107512;28;20084;-74
2023/09/13 22:34:00;;;;;;;8.02;6.57;;;;;;;;;;10085071;28;20099;-73
2023/09/13 22:38:51;;;;;;;8.63;6.95;;;;;;;;;;10098333;28;20140;-72
2023/09/13 22:43:59;;;;;;;6.00;5.40;;;;;;;;;;10104892;28;20052;-75
2023/09/13 22:48:51;;;;;;;7.20;6.40;;;;;;;;;;10079120;28;20044;-73
2023/09/13 22:53:43;;;;;;;9.10;7.50;;;;;;;;;;10091765;28;20430;-74
2023/09/13 22:58:35;;;;;;;9.82;8.20;;;;;;;;;;10084812;28;20094;-73
2023/09/13 23:03:26;;;;;;;7.85;7.05;;;;;;;;;;10111245;28;20041;-74
2023/09/13 23:08:37;;;;;;;13.00;8.97;;;;;;;;;;10077400;28;20041;-71
2023/09/13 23:13:30;;;;;;;10.85;9.85;;;;;;;;;;10070908;28;20308;-73
2023/09/13 23:18:22;;;;;;;13.43;8.05;;;;;;;;;;10068550;28;20067;-74
2023/09/13 23:23:20;;;;;;;14.40;6.85;;;;;;;;;;10068321;28;20079;-74
2023/09/13 23:28:12;;;;;;;7.05;6.45;;;;;;;;;;10067707;28;20073;-74
2023/09/13 23:33:04;;;;;;;8.98;7.07;;;;;;;;;;10069784;28;20099;-74
2023/09/13 23:37:57;;;;;;;15.18;7.18;;;;;;;;;;10069713;28;20077;-74
2023/09/13 23:42:49;;;;;;;9.45;6.95;;;;;;;;;;10068698;28;20042;-73
2023/09/13 23:47:40;;;;;;;7.47;6.78;;;;;;;;;;10067613;28;20079;-75
2023/09/13 23:52:32;;;;;;;18.63;8.25;;;;;;;;;;10068832;28;20057;-73
2023/09/13 23:57:24;;;;;;;13.57;7.03;;;;;;;;;;10066495;28;20084;-74
